^^
Datos históricos de la estación: Murcia-Puente Tocinos
Diario Informe para Abril 19, 2019 Unidades:  Ingés    Métrico   Ambas
Diario Semanal Mensual Anual
  Máxima: Mínima: Promedio:
Temperatura: 89.8 °F 72.1 °F 80.4 °F
Punto de rocio: 69.6 °F 55.2 °F 64.8 °F
Humedad: 81% 31.5% 62%
Velocidad viento: 11.8mph 0mph 5.5mph
Racha viento: 23mph - -
Viento- - ENE
Presión: 30 in 29.9 in -
Precipitación: 0 in    
 
 
Tabla de datos para Abril 19, 2019
Hora Temperatura Punto de rocio Presión Viento Velocidad viento Racha viento Humedad Intensidad lluvia(por hora) Nubes
00:04 76.6 °F 67.1 °F 29.9 in NE 6.4 mph 9.2 mph 72.5% 0 in
00:09 76.6 °F 67.3 °F 29.9 in NE 6.2 mph 9 mph 73% 0 in
00:14 76.5 °F 67.3 °F 29.9 in NE 5.4 mph 11.5 mph 73.2% 0 in
00:19 76.3 °F 67.5 °F 29.9 in NE 5.5 mph 12 mph 74% 0 in
00:24 76.3 °F 67.5 °F 29.9 in NE 6.2 mph 9 mph 74% 0 in
00:29 76.3 °F 67.5 °F 29.9 in NE 5.9 mph 8.1 mph 74% 0 in
00:34 76.1 °F 67.3 °F 29.9 in NE 5.2 mph 8 mph 74% 0 in
00:39 75.9 °F 67.3 °F 29.9 in NE 5.1 mph 7 mph 74.4% 0 in
00:44 75.9 °F 67.5 °F 29.9 in NE 4.7 mph 8.1 mph 75% 0 in
00:49 75.7 °F 67.3 °F 29.9 in NE 4.8 mph 8.1 mph 75% 0 in
00:54 75.7 °F 67.3 °F 29.9 in NNE 5.2 mph 7.4 mph 75.5% 0 in
00:59 75.6 °F 67.5 °F 29.9 in NE 4.8 mph 7.6 mph 76% 0 in
01:04 75.6 °F 67.6 °F 29.9 in NE 4 mph 8.1 mph 76.6% 0 in
01:09 75.4 °F 67.6 °F 29.9 in NE 4.5 mph 8.1 mph 77% 0 in
01:14 75.4 °F 67.6 °F 29.9 in NE 5.9 mph 9.2 mph 77% 0 in
01:19 75.4 °F 67.6 °F 29.9 in NE 5.7 mph 10.4 mph 77% 0 in
01:24 75.4 °F 67.6 °F 29.9 in NE 5.2 mph 10 mph 77% 0 in
01:29 75.2 °F 67.6 °F 29.9 in NE 5.2 mph 8.1 mph 77% 0 in
01:34 75 °F 67.6 °F 29.9 in NE 5.2 mph 8 mph 77.8% 0 in
01:39 75 °F 67.6 °F 29.9 in NE 5.2 mph 8.1 mph 78% 0 in
01:44 75 °F 67.6 °F 29.9 in NE 5.2 mph 8 mph 78% 0 in
01:49 74.8 °F 67.6 °F 29.9 in NE 5.1 mph 7.4 mph 78% 0 in
01:54 74.8 °F 67.5 °F 29.9 in NE 4.7 mph 9.2 mph 78% 0 in
01:59 74.8 °F 67.6 °F 29.9 in NE 4.8 mph 9 mph 78.6% 0 in
02:04 74.7 °F 67.6 °F 29.9 in NE 5.2 mph 7.4 mph 79% 0 in
02:09 74.7 °F 67.6 °F 29.9 in NE 4.9 mph 7 mph 79% 0 in
02:14 74.5 °F 67.5 °F 29.9 in NNE 4 mph 6.9 mph 79% 0 in
02:19 74.5 °F 67.5 °F 29.9 in NE 3.9 mph 8.1 mph 79% 0 in
02:24 74.5 °F 67.5 °F 29.9 in NNE 3.6 mph 8 mph 79% 0 in
02:29 74.5 °F 67.5 °F 29.9 in NNE 3.4 mph 6 mph 79% 0 in
02:34 74.3 °F 67.6 °F 29.9 in NNE 2.9 mph 6.4 mph 79.8% 0 in
02:39 74.3 °F 67.8 °F 29.9 in NNE 2.9 mph 7 mph 80% 0 in
02:44 74.3 °F 67.6 °F 29.9 in NNE 3.1 mph 7 mph 80% 0 in
02:49 74.1 °F 67.6 °F 29.9 in NNE 3 mph 5 mph 80% 0 in
02:54 74.1 °F 67.6 °F 29.9 in NE 2.9 mph 5.9 mph 80% 0 in
02:59 74.1 °F 67.6 °F 29.9 in NE 3 mph 6 mph 80% 0 in
03:04 74.1 °F 67.6 °F 29.9 in NE 3.1 mph 6 mph 80.1% 0 in
03:09 73.9 °F 67.6 °F 29.9 in NE 3.1 mph 6 mph 80.6% 0 in
03:14 73.9 °F 67.8 °F 29.9 in NE 3.1 mph 5 mph 81% 0 in
03:19 74.1 °F 67.6 °F 29.9 in ENE 3.1 mph 5.2 mph 80.4% 0 in
03:24 74.1 °F 67.6 °F 29.9 in NE 3.1 mph 5 mph 80% 0 in
03:29 73.9 °F 67.5 °F 29.9 in ENE 2.8 mph 5 mph 80% 0 in
03:34 73.9 °F 67.6 °F 29.9 in ENE 2 mph 5 mph 80.7% 0 in
03:39 73.8 °F 67.6 °F 29.9 in ENE 2 mph 5.4 mph 81% 0 in
03:44 73.8 °F 67.6 °F 29.9 in NE 2 mph 6 mph 81% 0 in
03:49 73.8 °F 67.5 °F 29.9 in NE 2.3 mph 6 mph 81% 0 in
03:54 73.6 °F 67.1 °F 29.9 in NE 3.1 mph 5 mph 80.2% 0 in
03:59 73.6 °F 66.9 °F 29.9 in NE 2.7 mph 4 mph 80% 0 in
04:04 73.6 °F 66.9 °F 29.9 in NE 1.8 mph 2 mph 80% 0 in
04:09 73.6 °F 66.9 °F 29.9 in Este 1.7 mph 4.6 mph 79.7% 0 in
04:14 73.6 °F 66.7 °F 29.9 in ESE 1.4 mph 5 mph 79% 0 in
04:19 73.6 °F 66.7 °F 29.9 in ESE 1.5 mph 5 mph 79% 0 in
04:24 73.6 °F 66.7 °F 29.9 in ESE 1.8 mph 3 mph 79% 0 in
04:29 73.6 °F 66.7 °F 29.9 in ESE 1.4 mph 4.6 mph 79% 0 in
04:34 73.6 °F 66.6 °F 29.9 in Calm   5 mph 78.7% 0 in
04:39 73.6 °F 66.2 °F 29.9 in ESE 0.6 mph 4.6 mph 78% 0 in
04:44 73.6 °F 66.4 °F 29.9 in ESE 2 mph 5 mph 78% 0 in
04:49 73.4 °F 65.8 °F 29.9 in ESE 2 mph 5 mph 77% 0 in
04:54 73.2 °F 65.7 °F 29.9 in ESE 2 mph 5 mph 77% 0 in
04:59 73.2 °F 65.7 °F 29.9 in ESE 1.9 mph 4 mph 77% 0 in
05:04 73 °F 65.8 °F 29.9 in ESE 1.8 mph 4 mph 78% 0 in
05:09 73 °F 65.8 °F 29.9 in ESE 1.8 mph 4 mph 78% 0 in
05:14 73 °F 65.8 °F 29.9 in ESE 1.8 mph 3 mph 78% 0 in
05:19 73 °F 65.8 °F 29.9 in ESE 1.3 mph 2 mph 78% 0 in
05:24 73 °F 65.8 °F 29.9 in Calm     78% 0 in
05:29 73 °F 65.8 °F 29.9 in Calm     78% 0 in
05:34 73.2 °F 65.8 °F 29.9 in Calm   4.6 mph 78% 0 in
05:39 73.2 °F 65.8 °F 29.9 in ESE 0.4 mph 5 mph 78% 0 in
05:44 73.2 °F 65.8 °F 29.9 in ESE 1.8 mph 3 mph 78% 0 in
05:49 73.2 °F 66.2 °F 29.9 in ESE 1.4 mph 2 mph 79% 0 in
05:54 73.2 °F 66.2 °F 29.9 in Calm     78.8% 0 in
05:59 73.2 °F 66 °F 29.9 in Calm     78.5% 0 in
06:04 73 °F 65.8 °F 29.9 in Calm     78% 0 in
06:09 73 °F 65.7 °F 29.9 in Calm   2.4 mph 78% 0 in
06:14 72.9 °F 65.7 °F 29.9 in Calm   2.9 mph 78% 0 in
06:19 72.7 °F 65.5 °F 29.9 in ESE 0.4 mph 3.5 mph 78% 0 in
06:24 72.7 °F 65.3 °F 29.9 in ESE 1.8 mph 3.6 mph 78% 0 in
06:29 72.3 °F 65.1 °F 29.9 in ESE 1.9 mph 4 mph 78.1% 0 in
06:34 72.3 °F 65.1 °F 29.9 in ESE 2 mph 3.5 mph 78% 0 in
06:39 72.3 °F 65.1 °F 29.9 in ESE 1.9 mph 3 mph 78% 0 in
06:44 72.1 °F 64.9 °F 29.9 in ESE 1.4 mph 2.9 mph 78% 0 in
06:49 72.1 °F 64.9 °F 29.9 in ESE 1.1 mph 3.5 mph 78% 0 in
06:54 72.1 °F 64.9 °F 29.9 in Calm   3 mph 78% 0 in
06:59 72.1 °F 64.9 °F 29.9 in Calm   2 mph 78% 0 in
07:04 72.1 °F 64.8 °F 29.9 in Calm     77.7% 0 in
07:09 72.3 °F 64.8 °F 29.9 in Calm     77.3% 0 in
07:14 72.3 °F 64.8 °F 29.9 in Calm     77% 0 in
07:19 72.3 °F 64.8 °F 29.9 in Calm     77% 0 in
07:24 72.3 °F 64.8 °F 29.9 in Calm     77.1% 0 in
07:29 72.5 °F 65.1 °F 29.9 in Calm     77.7% 0 in
07:34 72.7 °F 65.1 °F 29.9 in Calm     77% 0 in
07:39 73 °F 65.1 °F 29.9 in Calm     76.7% 0 in
07:44 73 °F 64.9 °F 29.9 in Calm   3.5 mph 75.4% 0 in
07:49 73.2 °F 64.9 °F 29.9 in ESE 0.4 mph 3 mph 75% 0 in
07:54 73.4 °F 64.8 °F 29.9 in SE 1.4 mph 4.7 mph 74.2% 0 in
07:59 73.4 °F 64.9 °F 29.9 in SE 1.6 mph 5 mph 74.5% 0 in
08:04 73.4 °F 64.9 °F 29.9 in SSE 2 mph 5 mph 75% 0 in
08:09 73.6 °F 65.1 °F 29.9 in Sur 2.3 mph 5.2 mph 75% 0 in
08:14 73.6 °F 65.1 °F 29.9 in SSE 3.1 mph 5 mph 75% 0 in
08:19 73.8 °F 65.3 °F 29.9 in SSE 2.8 mph 5 mph 75% 0 in
08:24 73.9 °F 65.3 °F 29.9 in SSE 2 mph 5.9 mph 74% 0 in
08:29 74.3 °F 65.5 °F 29.9 in SSE 2.1 mph 6 mph 74% 0 in
08:34 74.7 °F 65.7 °F 29.9 in SSE 2.4 mph 4 mph 73.7% 0 in
08:39 75.4 °F 66 °F 29.9 in SSE 1.8 mph 2 mph 72.8% 0 in
08:44 75.7 °F 65.8 °F 29.9 in Calm     71.3% 0 in
08:49 75.9 °F 65.8 °F 30 in Calm   4.6 mph 71% 0 in
08:54 75.9 °F 65.8 °F 30 in Calm   5 mph 71% 0 in
08:59 75.7 °F 65.7 °F 30 in SSE 0.6 mph 4.6 mph 71% 0 in
09:04 75.7 °F 66 °F 30 in Sur 2 mph 5 mph 71.8% 0 in
09:09 75.6 °F 66 °F 30 in SSE 2.1 mph 5 mph 72% 0 in
09:14 75.6 °F 65.8 °F 30 in SSE 2.4 mph 5.8 mph 72.1% 0 in
09:19 75.4 °F 66 °F 30 in SE 2.5 mph 6 mph 72.8% 0 in
09:24 75.4 °F 66.2 °F 30 in ESE 2.9 mph 5 mph 73% 0 in
09:29 75.7 °F 66.2 °F 30 in Sur 2.7 mph 5 mph 72.7% 0 in
09:34 75.9 °F 66.2 °F 30 in Sur 2.4 mph 5 mph 72% 0 in
09:39 76.5 °F 66.7 °F 30 in SSE 2.4 mph 5 mph 72% 0 in
09:44 77 °F 66.9 °F 30 in ESE 2.4 mph 5 mph 71.2% 0 in
09:49 77.9 °F 67.3 °F 30 in Este 2.2 mph 5.4 mph 70% 0 in
09:54 78.3 °F 67.8 °F 30 in NNO 1.8 mph 6 mph 70.5% 0 in
09:59 78.3 °F 68.2 °F 30 in NNE 2.1 mph 6 mph 71.1% 0 in
10:04 78.6 °F 68.5 °F 30 in NE 2.9 mph 6.9 mph 71.2% 0 in
10:09 79.2 °F 68.7 °F 30 in NNE 2.7 mph 7 mph 70.7% 0 in
10:14 79.3 °F 68.7 °F 30 in North 2 mph 8.1 mph 70% 0 in
10:19 79.2 °F 68.9 °F 30 in NNE 2.5 mph 8.1 mph 70.9% 0 in
10:24 79.2 °F 68.7 °F 30 in NNO 4 mph 7 mph 70.6% 0 in
10:29 79.3 °F 68.7 °F 30 in NNE 3.8 mph 10.2 mph 70.3% 0 in
10:34 79.3 °F 68.7 °F 30 in ENE 3.1 mph 10.4 mph 70.2% 0 in
10:39 79.3 °F 68.9 °F 30 in NE 3.4 mph 8.7 mph 70.4% 0 in
10:44 79.3 °F 68 °F 30 in NNE 4 mph 9.2 mph 68.1% 0 in
10:49 79.9 °F 68.2 °F 30 in North 4 mph 9 mph 67.8% 0 in
10:54 80.2 °F 67.3 °F 30 in NNE 4 mph 8.1 mph 64.6% 0 in
10:59 80.4 °F 66.9 °F 30 in NNO 4 mph 8.1 mph 63.4% 0 in
11:04 80.6 °F 67.1 °F 30 in NNE 4 mph 6.2 mph 63.3% 0 in
11:09 81.1 °F 67.3 °F 30 in NNE 3.9 mph 10.4 mph 63% 0 in
11:14 81.1 °F 67.3 °F 30 in NNE 3.6 mph 11.8 mph 62.9% 0 in
11:19 81.3 °F 67.1 °F 30 in NE 4 mph 12 mph 62.2% 0 in
11:24 81.3 °F 67.3 °F 30 in NNO 5.4 mph 10 mph 62.4% 0 in
11:29 81.5 °F 66.6 °F 30 in North 5.2 mph 9 mph 60.4% 0 in
11:34 81.9 °F 66.4 °F 30 in North 4.7 mph 8.1 mph 59.4% 0 in
11:39 82 °F 66.9 °F 30 in NE 4.6 mph 11.5 mph 60% 0 in
11:44 82.4 °F 66.9 °F 30 in NE 4.3 mph 12 mph 59.8% 0 in
11:49 82.8 °F 66.4 °F 30 in NNE 4.5 mph 9.7 mph 58% 0 in
11:54 82.9 °F 65.8 °F 30 in NE 5.2 mph 11.8 mph 56.4% 0 in
11:59 83.1 °F 65.5 °F 30 in NE 5.4 mph 12 mph 55.4% 0 in
12:04 83.5 °F 65.1 °F 30 in NNE 5.9 mph 13 mph 54% 0 in
12:09 83.7 °F 65.1 °F 30 in NNE 6 mph 13 mph 53.7% 0 in
12:14 84.2 °F 64 °F 30 in ENE 6.2 mph 16.1 mph 50.8% 0 in
12:19 84.6 °F 63.9 °F 30 in ENE 6.3 mph 16.3 mph 49.8% 0 in
12:24 85.1 °F 63.1 °F 29.9 in NE 6.4 mph 16 mph 48% 0 in
12:29 84.9 °F 63.1 °F 29.9 in NE 7.1 mph 14 mph 48.1% 0 in
12:34 85.3 °F 63 °F 29.9 in NE 9.2 mph 15 mph 47.3% 0 in
12:39 85.5 °F 63.7 °F 29.9 in NE 8.4 mph 15 mph 48% 0 in
12:44 86 °F 63.7 °F 29.9 in NE 6.4 mph 15.2 mph 47.6% 0 in
12:49 85.8 °F 62.8 °F 29.9 in NE 6.7 mph 17.8 mph 46.2% 0 in
12:54 86.4 °F 62.4 °F 29.9 in NE 7.6 mph 18.4 mph 45.1% 0 in
12:59 86.5 °F 62.4 °F 29.9 in NE 8 mph 17 mph 44.7% 0 in
13:04 86.7 °F 62.8 °F 29.9 in NE 8.7 mph 15 mph 45% 0 in
13:09 86.9 °F 63 °F 29.9 in NE 8.7 mph 15.2 mph 45.1% 0 in
13:14 87.3 °F 61.9 °F 29.9 in NE 8.7 mph 15.2 mph 42.7% 0 in
13:19 87.4 °F 60.6 °F 29.9 in NE 8.6 mph 16.3 mph 40.6% 0 in
13:24 88 °F 58.6 °F 29.9 in NE 8.1 mph 18.4 mph 37.2% 0 in
13:29 88.7 °F 57.9 °F 29.9 in ENE 8.2 mph 18 mph 35.4% 0 in
13:34 89.2 °F 57.7 °F 29.9 in ENE 8.5 mph 15 mph 34.6% 0 in
13:39 89.8 °F 57.2 °F 29.9 in ENE 8.2 mph 16.3 mph 33.4% 0 in
13:44 89.8 °F 56.3 °F 29.9 in ENE 7.4 mph 17.3 mph 32.4% 0 in
13:49 89.8 °F 56.7 °F 29.9 in NE 7.6 mph 17 mph 32.8% 0 in
13:54 89.8 °F 56.5 °F 29.9 in NE 8.1 mph 16.1 mph 32.6% 0 in
13:59 89.6 °F 55.4 °F 29.9 in ENE 8.4 mph 17 mph 31.5% 0 in
14:04 89.2 °F 55.2 °F 29.9 in NE 9.2 mph 17.3 mph 31.6% 0 in
14:09 89.4 °F 55.9 °F 29.9 in NE 9.4 mph 19.7 mph 32.4% 0 in
14:14 89.6 °F 55.6 °F 29.9 in Este 10 mph 20 mph 31.8% 0 in
14:19 89.8 °F 55.9 °F 29.9 in ENE 9.8 mph 19.7 mph 32.1% 0 in
14:24 89.6 °F 56.5 °F 29.9 in ENE 9.2 mph 20 mph 32.8% 0 in
14:29 89.8 °F 55.9 °F 29.9 in ENE 9.1 mph 18.4 mph 32% 0 in
14:34 89.4 °F 56.5 °F 29.9 in ENE 8.7 mph 18.4 mph 32.9% 0 in
14:39 89.2 °F 56.7 °F 29.9 in ENE 8.9 mph 18 mph 33.3% 0 in
14:44 89.2 °F 57 °F 29.9 in ENE 9.7 mph 15 mph 33.9% 0 in
14:49 89.2 °F 57.2 °F 29.9 in NE 9.4 mph 15 mph 34% 0 in
14:54 89.2 °F 57.4 °F 29.9 in ENE 8.7 mph 16.1 mph 34.1% 0 in
14:59 88.9 °F 57.6 °F 29.9 in ENE 9.1 mph 20.7 mph 34.9% 0 in
15:04 88.5 °F 57.7 °F 29.9 in ENE 10 mph 21 mph 35.4% 0 in
15:09 88.9 °F 57.6 °F 29.9 in ENE 10 mph 19 mph 34.9% 0 in
15:14 88.5 °F 58.3 °F 29.9 in NE 10 mph 19 mph 36.1% 0 in
15:19 88.7 °F 59.2 °F 29.9 in ENE 10.1 mph 18 mph 37.1% 0 in
15:24 89.1 °F 59.5 °F 29.9 in ENE 10.2 mph 17.3 mph 37.3% 0 in
15:29 89.2 °F 60.1 °F 29.9 in NE 9.6 mph 17.3 mph 37.7% 0 in
15:34 89.1 °F 60.4 °F 29.9 in NE 8.1 mph 21.9 mph 38.3% 0 in
15:39 89.1 °F 61 °F 29.9 in NE 8.6 mph 22 mph 39.2% 0 in
15:44 88.9 °F 60.6 °F 29.9 in NE 10.2 mph 18 mph 39% 0 in
15:49 88.9 °F 60.3 °F 29.9 in NE 10.2 mph 19.7 mph 38.4% 0 in
15:54 89.1 °F 60.4 °F 29.9 in NE 10.2 mph 20 mph 38.5% 0 in
15:59 89.2 °F 60.8 °F 29.9 in NE 9.7 mph 20.1 mph 38.7% 0 in
16:04 88.5 °F 59.5 °F 29.9 in NE 8.5 mph 23 mph 37.7% 0 in
16:09 88.3 °F 59.7 °F 29.9 in ENE 9.3 mph 23 mph 38.5% 0 in
16:14 88.2 °F 59.9 °F 29.9 in NE 11.8 mph 18.5 mph 38.8% 0 in
16:19 88.3 °F 59.7 °F 29.9 in ENE 11.6 mph 19 mph 38.4% 0 in
16:24 88.3 °F 59.5 °F 29.9 in NE 11.2 mph 19.6 mph 38% 0 in
16:29 88.3 °F 59.7 °F 29.9 in NE 10.9 mph 20 mph 38.2% 0 in
16:34 88.2 °F 60.6 °F 29.9 in NE 10.2 mph 19 mph 39.5% 0 in
16:39 88.3 °F 60.4 °F 29.9 in NE 10.4 mph 18.5 mph 39.2% 0 in
16:44 88.3 °F 60.4 °F 29.9 in NE 11.2 mph 20.7 mph 39.3% 0 in
16:49 88.3 °F 61.2 °F 29.9 in ENE 11.2 mph 21 mph 40.3% 0 in
16:54 88.5 °F 61.2 °F 29.9 in ENE 11.2 mph 17 mph 40.2% 0 in
16:59 89.1 °F 61.5 °F 29.9 in ENE 10.3 mph 16.1 mph 40% 0 in
17:04 89.1 °F 61.5 °F 29.9 in NE 8.1 mph 19.6 mph 40% 0 in
17:09 88.7 °F 61.7 °F 29.9 in NE 8.6 mph 20 mph 40.6% 0 in
17:14 88.3 °F 61.7 °F 29.9 in ENE 10 mph 18 mph 41% 0 in
17:19 88.5 °F 61 °F 29.9 in Este 9.8 mph 18.4 mph 39.9% 0 in
17:24 88.3 °F 61 °F 29.9 in ENE 9.2 mph 18 mph 40% 0 in
17:29 88.5 °F 61.2 °F 29.9 in NE 9.3 mph 20.7 mph 40% 0 in
17:34 88.3 °F 61.2 °F 29.9 in ENE 9.7 mph 21 mph 40.1% 0 in
17:39 88.2 °F 61.5 °F 29.9 in ENE 9.7 mph 21.5 mph 41% 0 in
17:44 88.2 °F 61.2 °F 29.9 in NE 9.7 mph 22 mph 40.4% 0 in
17:49 88 °F 60.4 °F 29.9 in NE 10.2 mph 20.8 mph 39.5% 0 in
17:54 87.8 °F 61.3 °F 29.9 in ENE 11.8 mph 21 mph 41.1% 0 in
17:59 88.2 °F 61.3 °F 29.9 in ENE 11.2 mph 16 mph 40.9% 0 in
18:04 88.2 °F 61.3 °F 29.9 in NE 9.7 mph 19.7 mph 40.8% 0 in
18:09 88.3 °F 60.8 °F 29.9 in ENE 9.4 mph 20 mph 39.8% 0 in
18:14 88.2 °F 60.8 °F 29.9 in ENE 8.7 mph 17.3 mph 39.8% 0 in
18:19 87.8 °F 61.5 °F 29.9 in NE 9.2 mph 21.9 mph 41.4% 0 in
18:24 87.4 °F 61.7 °F 29.9 in NE 10.7 mph 22 mph 42.3% 0 in
18:29 87.4 °F 61.9 °F 29.9 in ENE 10.7 mph 21 mph 42.6% 0 in
18:34 87.6 °F 61.7 °F 29.9 in ENE 10.7 mph 17 mph 42% 0 in
18:39 87.6 °F 61.7 °F 29.9 in ENE 10.3 mph 17.3 mph 42% 0 in
18:44 87.6 °F 62.2 °F 29.9 in NE 9.2 mph 19.6 mph 42.8% 0 in
18:49 87.4 °F 62.2 °F 29.9 in ENE 9.1 mph 20 mph 43% 0 in
18:54 87.3 °F 62.4 °F 29.9 in ENE 8.7 mph 16.3 mph 43.6% 0 in
18:59 87.1 °F 62.4 °F 29.9 in ENE 8.7 mph 16.1 mph 44% 0 in
19:04 87.1 °F 62.4 °F 29.9 in NE 8.7 mph 16 mph 44% 0 in
19:09 86.9 °F 62.6 °F 29.9 in ENE 8.9 mph 16.1 mph 44.3% 0 in
19:14 86.5 °F 63 °F 29.9 in NE 9.7 mph 16.1 mph 45.3% 0 in
19:19 86.7 °F 63 °F 29.9 in NE 9.1 mph 16.3 mph 45.1% 0 in
19:24 86.5 °F 63 °F 29.9 in ENE 7.6 mph 19.2 mph 45.3% 0 in
19:29 86.4 °F 63.1 °F 29.9 in ENE 7.8 mph 19 mph 46% 0 in
19:34 86 °F 63 °F 29.9 in ENE 8.5 mph 16 mph 46.1% 0 in
19:39 85.8 °F 63.1 °F 29.9 in ENE 8.6 mph 15 mph 46.6% 0 in
19:44 85.8 °F 63.1 °F 29.9 in NE 8.7 mph 15 mph 46.6% 0 in
19:49 85.6 °F 63.5 °F 29.9 in NE 8.6 mph 16.1 mph 47.6% 0 in
19:54 85.5 °F 64 °F 29.9 in NE 8.1 mph 16 mph 49.1% 0 in
19:59 85.1 °F 64.6 °F 29.9 in ENE 8.2 mph 16.1 mph 50.4% 0 in
20:04 84.9 °F 64.8 °F 29.9 in NE 8.5 mph 16 mph 51% 0 in
20:09 84.7 °F 64.9 °F 29.9 in NE 8.3 mph 14 mph 51.6% 0 in
20:14 84.6 °F 65.3 °F 29.9 in NE 7.6 mph 15.9 mph 52.6% 0 in
20:19 84.4 °F 65.3 °F 29.9 in ENE 7.8 mph 16.1 mph 53% 0 in
20:24 84 °F 64.9 °F 29.9 in ENE 8.1 mph 16 mph 52.6% 0 in
20:29 83.8 °F 65.1 °F 29.9 in ENE 8.1 mph 15 mph 53.6% 0 in
20:34 83.5 °F 65.3 °F 29.9 in NE 8.1 mph 15 mph 54.5% 0 in
20:39 83.1 °F 65.7 °F 29.9 in NE 8.1 mph 15 mph 55.7% 0 in
20:44 83.1 °F 66 °F 29.9 in ENE 8.1 mph 13 mph 56.7% 0 in
20:49 82.8 °F 66.6 °F 29.9 in ENE 8.2 mph 15 mph 58% 0 in
20:54 82.6 °F 65.8 °F 29.9 in NE 8.5 mph 15 mph 56.9% 0 in
20:59 82.6 °F 65.3 °F 29.9 in NE 8.4 mph 15 mph 56% 0 in
21:04 82.4 °F 65.1 °F 29.9 in NE 8.1 mph 14 mph 56% 0 in
21:09 82.2 °F 64.9 °F 29.9 in NE 8.1 mph 14 mph 56.1% 0 in
21:14 82 °F 65.7 °F 29.9 in NE 8.1 mph 13.8 mph 57.4% 0 in
21:19 81.9 °F 66.2 °F 29.9 in NE 7.9 mph 14 mph 59.1% 0 in
21:24 81.5 °F 66.7 °F 29.9 in NE 7.4 mph 14 mph 60.8% 0 in
21:29 81.3 °F 67.3 °F 29.9 in NE 7.3 mph 13 mph 62.4% 0 in
21:34 81 °F 68 °F 29.9 in NE 6.9 mph 13.7 mph 65% 0 in
21:39 80.6 °F 68.4 °F 29.9 in NE 7.1 mph 14 mph 66.5% 0 in
21:44 80.2 °F 68.4 °F 29.9 in NE 7.6 mph 14 mph 67% 0 in
21:49 80.2 °F 68.5 °F 29.9 in NE 7.8 mph 16.1 mph 67.7% 0 in
21:54 80.1 °F 68.7 °F 29.9 in NE 8.5 mph 16 mph 68.5% 0 in
21:59 79.9 °F 68.7 °F 29.9 in NE 8.6 mph 14 mph 68.9% 0 in
22:04 79.5 °F 68.2 °F 29.9 in NE 8.7 mph 15.2 mph 68.1% 0 in
22:09 79.5 °F 68 °F 29.9 in NE 8.7 mph 15 mph 68% 0 in
22:14 79.3 °F 68.4 °F 29.9 in NE 8.7 mph 13 mph 69% 0 in
22:19 79.3 °F 68.4 °F 29.9 in NE 8.6 mph 13 mph 69% 0 in
22:24 79.3 °F 68.4 °F 29.9 in NE 8.5 mph 12 mph 69% 0 in
22:29 79.2 °F 68.2 °F 29.9 in NE 7.9 mph 12 mph 69.1% 0 in
22:34 79.2 °F 68.5 °F 29.9 in NE 6.4 mph 13.8 mph 70% 0 in
22:39 79 °F 68.4 °F 29.9 in NE 6.6 mph 14 mph 70% 0 in
22:44 79 °F 68.7 °F 29.9 in NE 7.4 mph 13 mph 70.9% 0 in
22:49 78.8 °F 68.7 °F 29.9 in NE 7 mph 10.7 mph 71.3% 0 in
22:54 78.6 °F 68.9 °F 29.9 in NE 5.9 mph 11.5 mph 72% 0 in
22:59 78.6 °F 69.1 °F 29.9 in NE 6 mph 12 mph 72.9% 0 in
23:04 78.4 °F 69.1 °F 29.9 in NE 6.2 mph 9 mph 73% 0 in
23:09 78.4 °F 69.3 °F 29.9 in NE 5.8 mph 7.4 mph 73.5% 0 in
23:14 78.4 °F 69.4 °F 29.9 in NE 4.7 mph 8.1 mph 74% 0 in
23:19 78.4 °F 69.4 °F 29.9 in NE 4.8 mph 8.5 mph 74% 0 in
23:24 78.3 °F 69.6 °F 29.9 in NE 5.2 mph 10 mph 74.9% 0 in
23:29 78.3 °F 69.6 °F 29.9 in NE 5 mph 10 mph 75% 0 in
23:34 78.3 °F 69.6 °F 29.9 in NE 4.7 mph 7 mph 75% 0 in
23:39 78.1 °F 69.4 °F 29.9 in NE 4.5 mph 7 mph 75% 0 in
23:44 78.1 °F 69.4 °F 29.9 in NNE 3.6 mph 5 mph 75% 0 in
23:49 78.1 °F 69.4 °F 29.9 in NNE 2.7 mph   75% 0 in
23:54 78.1 °F 69.4 °F 29.9 in Calm   4.6 mph 75% 0 in
23:59 78.1 °F 69.4 °F 29.9 in NNO 0.7 mph 5 mph 75% 0 in
Murcia-Puente Tocinos, España
Compliments of Weather Underground - 3 mb

La estación de MeteoMurcia.com, publica sus datos en los siguientes proyectos:

Weather Underground PWS IMURCIAP2 Meteoclimatic www.awekas.at

W3Counter
Web Analytics